Time;durP1;ratioP1;P1;durP2;ratioP2;P2;SDS_P1;SDS_P2;PMS_P1;PMS_P2;Temp;Humidity;BMP_temperature;BMP_pressure;BME280_temperature;BME280_humidity;BME280_pressure;Samples;Min_cycle;Max_cycle;Signal;HPM_P1;HPM_P2
2021/09/20 00:01:02;;;;;;;6.85;6.15;;;;;;;12.96;92.21;100174.06;5036321;28;20041;-70
2021/09/20 00:03:28;;;;;;;8.07;6.63;;;;;;;12.95;92.39;100180.38;5037156;28;20053;-70
2021/09/20 00:05:55;;;;;;;11.35;7.13;;;;;;;12.86;92.33;100185.41;5037132;28;20389;-70
2021/09/20 00:08:22;;;;;;;7.13;6.43;;;;;;;12.84;92.92;100183.81;5037011;28;20060;-70
2021/09/20 00:10:50;;;;;;;8.93;6.90;;;;;;;12.78;93.14;100182.44;5035610;28;20382;-70
2021/09/20 00:13:17;;;;;;;8.43;6.45;;;;;;;12.80;93.11;100190.38;5036880;28;20037;-70
2021/09/20 00:15:45;;;;;;;8.32;6.95;;;;;;;12.79;93.37;100188.66;5035838;28;20053;-71
2021/09/20 00:18:11;;;;;;;9.35;6.53;;;;;;;12.68;93.33;100176.03;5036771;28;20121;-70
2021/09/20 00:20:38;;;;;;;9.88;6.30;;;;;;;12.75;93.47;100188.03;5036707;28;20049;-69
2021/09/20 00:23:05;;;;;;;9.07;6.85;;;;;;;12.74;93.48;100192.50;5036541;28;20049;-70
2021/09/20 00:25:32;;;;;;;11.48;7.00;;;;;;;12.66;93.89;100186.84;5036690;28;20045;-71
2021/09/20 00:27:59;;;;;;;10.95;7.38;;;;;;;12.68;93.43;100192.94;5036487;28;20061;-70
2021/09/20 00:30:26;;;;;;;8.13;7.28;;;;;;;12.67;93.31;100182.31;5036208;28;20050;-70
2021/09/20 00:32:53;;;;;;;12.48;7.28;;;;;;;12.68;93.39;100184.06;5035498;28;20056;-70
2021/09/20 00:35:20;;;;;;;14.48;7.35;;;;;;;12.58;93.93;100190.03;5050017;28;20059;-70
2021/09/20 00:37:46;;;;;;;7.72;6.88;;;;;;;12.53;94.62;100202.88;5038764;28;20504;-70
2021/09/20 00:40:13;;;;;;;10.95;7.10;;;;;;;12.48;94.87;100200.50;5056317;28;20037;-70
2021/09/20 00:42:40;;;;;;;9.50;7.65;;;;;;;12.58;94.72;100202.56;5056258;28;20041;-69
2021/09/20 00:45:08;;;;;;;9.20;7.75;;;;;;;12.60;94.53;100206.00;5056603;28;20048;-69
2021/09/20 00:47:35;;;;;;;10.00;7.10;;;;;;;12.57;94.86;100212.41;5055128;28;20041;-70
2021/09/20 00:50:04;;;;;;;11.10;7.95;;;;;;;12.55;94.45;100217.03;5054952;28;20059;-69
2021/09/20 00:52:30;;;;;;;9.15;7.45;;;;;;;12.54;94.84;100218.00;5054733;28;20453;-70
2021/09/20 00:54:57;;;;;;;11.98;7.47;;;;;;;12.48;94.69;100211.22;5055019;28;20049;-70
2021/09/20 00:57:25;;;;;;;12.05;7.20;;;;;;;12.47;94.68;100220.22;5056030;28;20052;-69
2021/09/20 00:59:52;;;;;;;9.95;7.45;;;;;;;12.47;94.61;100212.19;5055392;28;20051;-70
2021/09/20 01:02:19;;;;;;;9.95;7.53;;;;;;;12.38;95.02;100218.19;5055374;28;20049;-70
2021/09/20 01:04:46;;;;;;;10.20;8.05;;;;;;;12.35;95.33;100210.34;5055809;28;20120;-70
2021/09/20 01:07:13;;;;;;;12.57;9.00;;;;;;;12.28;95.76;100215.25;5038142;28;20045;-70
2021/09/20 01:09:40;;;;;;;11.65;8.93;;;;;;;12.22;95.72;100219.19;5054363;28;20047;-70
2021/09/20 01:12:08;;;;;;;14.32;10.43;;;;;;;12.24;95.57;100218.25;5055726;28;20375;-69
2021/09/20 01:14:35;;;;;;;13.25;11.10;;;;;;;12.14;96.23;100215.34;5055533;28;20049;-70
2021/09/20 01:17:04;;;;;;;19.65;12.30;;;;;;;12.08;96.14;100206.75;5055275;28;20052;-70
2021/09/20 01:19:31;;;;;;;13.77;10.40;;;;;;;12.07;96.47;100215.75;5055455;28;20044;-70
2021/09/20 01:22:04;;;;;;;16.90;11.73;;;;;;;12.03;96.33;100205.28;5054456;28;20045;-70
2021/09/20 01:24:31;;;;;;;17.38;11.98;;;;;;;12.02;96.48;100206.25;5055485;28;20059;-70
2021/09/20 01:27:01;;;;;;;12.75;10.48;;;;;;;11.98;96.84;100210.94;5038019;28;20060;-69
2021/09/20 01:29:28;;;;;;;12.73;11.13;;;;;;;11.91;96.83;100209.66;5055366;28;20106;-70
2021/09/20 01:31:57;;;;;;;12.52;10.77;;;;;;;11.87;96.97;100208.16;5055158;28;20083;-70
2021/09/20 01:34:25;;;;;;;13.68;10.05;;;;;;;11.88;96.98;100207.19;5054024;28;20049;-70
2021/09/20 01:36:52;;;;;;;11.10;9.75;;;;;;;11.84;96.91;100197.63;5055288;28;20330;-70
2021/09/20 01:39:23;;;;;;;15.23;10.70;;;;;;;11.79;97.23;100209.50;5037577;28;20053;-70
2021/09/20 01:41:51;;;;;;;14.20;10.65;;;;;;;11.81;97.29;100209.38;5055381;28;20040;-70
2021/09/20 01:44:18;;;;;;;11.98;9.45;;;;;;;11.73;96.96;100201.03;5055292;28;20401;-70
2021/09/20 01:46:50;;;;;;;12.85;9.82;;;;;;;11.75;97.27;100213.34;5054127;28;20075;-70
2021/09/20 01:49:17;;;;;;;14.73;9.15;;;;;;;11.70;97.44;100212.78;5054073;28;20346;-70
2021/09/20 01:51:45;;;;;;;9.63;7.97;;;;;;;11.68;97.05;100217.38;5053911;28;20053;-69
2021/09/20 01:54:12;;;;;;;14.43;8.88;;;;;;;11.68;97.22;100212.03;5054990;28;20040;-69
2021/09/20 01:56:40;;;;;;;17.02;8.65;;;;;;;11.66;97.34;100216.63;5035055;28;20049;-69
2021/09/20 01:59:07;;;;;;;16.33;8.13;;;;;;;11.67;97.19;100218.34;5033873;28;20054;-69
2021/09/20 02:01:34;;;;;;;10.65;8.15;;;;;;;11.68;96.97;100212.03;5035023;28;20047;-69
2021/09/20 02:04:02;;;;;;;11.75;8.07;;;;;;;11.61;97.51;100210.69;5034513;28;20091;-69
2021/09/20 02:06:29;;;;;;;10.02;8.02;;;;;;;11.55;97.72;100214.59;5035148;28;20049;-69
2021/09/20 02:08:56;;;;;;;13.02;11.15;;;;;;;11.48;97.87;100210.63;5034899;28;20045;-69
2021/09/20 02:11:25;;;;;;;20.50;17.00;;;;;;;11.53;97.87;100220.06;5033726;28;20041;-69
2021/09/20 02:13:53;;;;;;;26.73;21.48;;;;;;;11.50;97.62;100219.41;5034879;28;20431;-69
2021/09/20 02:16:20;;;;;;;28.70;23.63;;;;;;;11.42;97.66;100214.56;5034916;28;20056;-69
2021/09/20 02:18:47;;;;;;;33.55;26.35;;;;;;;11.40;98.11;100216.47;5034703;28;20072;-69
2021/09/20 02:21:14;;;;;;;33.90;27.63;;;;;;;11.34;98.01;100206.16;5034040;28;20377;-69
2021/09/20 02:23:42;;;;;;;29.48;25.45;;;;;;;11.40;98.06;100213.81;5034885;28;20045;-70
2021/09/20 02:26:09;;;;;;;28.27;24.95;;;;;;;11.36;98.21;100209.59;5033507;28;20407;-70
2021/09/20 02:28:37;;;;;;;30.48;24.75;;;;;;;11.32;98.07;100208.09;5034920;28;20374;-70
2021/09/20 02:31:05;;;;;;;24.38;20.27;;;;;;;11.36;98.11;100209.59;5033405;28;20435;-70
2021/09/20 02:33:34;;;;;;;24.08;19.08;;;;;;;11.31;97.88;100211.69;5034768;28;20107;-69
2021/09/20 02:36:01;;;;;;;16.98;14.35;;;;;;;11.36;97.96;100212.28;5034623;28;20715;-69
2021/09/20 02:38:28;;;;;;;18.63;14.13;;;;;;;11.35;97.89;100213.22;5034702;28;20041;-69
2021/09/20 02:40:55;;;;;;;17.75;13.32;;;;;;;11.33;97.87;100207.97;5034587;28;20045;-69
2021/09/20 02:43:22;;;;;;;13.93;12.40;;;;;;;11.28;98.01;100218.13;5033780;28;20083;-70
2021/09/20 02:45:50;;;;;;;18.42;12.45;;;;;;;11.26;98.09;100220.00;5033415;28;20111;-70
2021/09/20 02:48:18;;;;;;;18.70;11.70;;;;;;;11.19;98.35;100227.56;5034544;28;20045;-70
2021/09/20 02:50:45;;;;;;;14.30;11.85;;;;;;;11.16;98.51;100210.88;5034457;28;20041;-70
2021/09/20 02:53:12;;;;;;;15.38;11.10;;;;;;;11.14;98.47;100217.19;5033286;28;20053;-70
2021/09/20 02:55:39;;;;;;;16.88;10.70;;;;;;;11.16;98.29;100216.22;5046444;28;20048;-70
2021/09/20 02:58:06;;;;;;;16.92;10.32;;;;;;;11.11;98.52;100227.19;5053534;28;20041;-69
2021/09/20 03:00:33;;;;;;;15.02;10.75;;;;;;;11.07;98.84;100223.81;5054411;28;20048;-70
2021/09/20 03:03:00;;;;;;;12.10;9.63;;;;;;;11.10;98.49;100226.31;5053335;28;20049;-70
2021/09/20 03:05:28;;;;;;;12.13;9.63;;;;;;;11.06;98.77;100230.13;5054390;28;20056;-70
2021/09/20 03:07:55;;;;;;;15.57;9.90;;;;;;;10.99;99.20;100229.66;5054415;28;20041;-69
2021/09/20 03:10:21;;;;;;;13.82;9.15;;;;;;;11.04;98.73;100228.50;5054348;28;20065;-70
2021/09/20 03:12:48;;;;;;;13.05;9.13;;;;;;;11.08;98.70;100233.56;5054355;28;20048;-70
2021/09/20 03:15:15;;;;;;;13.43;9.05;;;;;;;11.06;99.17;100232.78;5054590;28;20079;-70
2021/09/20 03:17:42;;;;;;;13.52;9.10;;;;;;;11.04;99.21;100237.38;5058055;28;20048;-70
2021/09/20 03:20:09;;;;;;;14.35;9.45;;;;;;;11.05;99.06;100239.09;5057924;28;20068;-70
2021/09/20 03:22:37;;;;;;;10.23;7.72;;;;;;;11.06;99.39;100240.81;5057918;28;20463;-69
2021/09/20 03:25:05;;;;;;;9.88;7.95;;;;;;;11.08;99.45;100238.91;5056648;28;20133;-69
2021/09/20 03:27:31;;;;;;;11.88;7.70;;;;;;;11.08;99.23;100243.38;5056711;28;20095;-69
2021/09/20 03:29:59;;;;;;;11.63;7.68;;;;;;;11.05;99.47;100240.94;5056416;28;20107;-70
2021/09/20 03:32:26;;;;;;;11.02;8.23;;;;;;;11.04;99.40;100244.53;5056406;28;20049;-70
2021/09/20 03:34:53;;;;;;;10.40;7.90;;;;;;;10.97;99.42;100241.38;5046562;28;20041;-69
2021/09/20 03:37:20;;;;;;;11.63;7.82;;;;;;;11.05;99.25;100248.94;5037813;28;20072;-70
2021/09/20 03:39:47;;;;;;;12.35;7.93;;;;;;;11.01;99.29;100250.94;5036519;28;20049;-70
2021/09/20 03:42:14;;;;;;;11.20;7.15;;;;;;;10.97;99.18;100246.72;5037474;28;20054;-70
2021/09/20 03:44:41;;;;;;;10.57;8.10;;;;;;;10.89;99.74;100252.53;5036497;28;20140;-70
2021/09/20 03:47:08;;;;;;;9.98;7.93;;;;;;;10.85;100.00;100259.03;5053560;28;20060;-70
2021/09/20 03:49:34;;;;;;;11.05;7.30;;;;;;;10.82;100.00;100256.53;5057205;28;20052;-70
2021/09/20 03:52:02;;;;;;;11.05;7.65;;;;;;;10.81;100.00;100263.69;5055671;28;20051;-69
2021/09/20 03:54:31;;;;;;;10.90;7.88;;;;;;;10.78;100.00;100258.53;5057077;28;20048;-70
2021/09/20 03:56:57;;;;;;;10.05;8.25;;;;;;;10.81;100.00;100262.81;5056896;28;20389;-69
2021/09/20 03:59:24;;;;;;;9.48;7.95;;;;;;;10.80;99.82;100266.44;5057118;28;20073;-70
2021/09/20 04:01:51;;;;;;;11.77;7.68;;;;;;;10.81;99.74;100262.81;5056437;28;20045;-69
2021/09/20 04:04:18;;;;;;;8.73;7.22;;;;;;;10.82;99.34;100267.19;5057057;28;20358;-69
2021/09/20 04:06:45;;;;;;;9.55;7.25;;;;;;;10.70;99.46;100255.47;5056812;28;20049;-69
2021/09/20 04:09:12;;;;;;;9.63;7.13;;;;;;;10.77;99.64;100267.50;5055935;28;20087;-69
2021/09/20 04:11:40;;;;;;;13.07;7.53;;;;;;;10.73;99.71;100268.59;5056778;28;20063;-69
2021/09/20 04:14:08;;;;;;;11.52;8.00;;;;;;;10.71;100.00;100263.38;5057176;28;20326;-69
2021/09/20 04:16:35;;;;;;;10.55;7.60;;;;;;;10.74;99.26;100262.34;5056263;28;20045;-69
2021/09/20 04:19:02;;;;;;;10.38;7.72;;;;;;;10.65;100.00;100261.09;5056779;28;20425;-69
2021/09/20 04:21:29;;;;;;;11.98;8.68;;;;;;;10.66;100.00;100265.47;5056621;28;20091;-69
2021/09/20 04:23:56;;;;;;;10.88;7.82;;;;;;;10.61;100.00;100258.69;5056466;28;20072;-69
2021/09/20 04:26:23;;;;;;;9.82;8.00;;;;;;;10.61;100.00;100269.38;5055939;28;20048;-69
2021/09/20 04:28:50;;;;;;;11.07;8.40;;;;;;;10.58;100.00;100259.72;5056562;28;20049;-69
2021/09/20 04:31:17;;;;;;;10.27;7.60;;;;;;;10.45;100.00;100243.56;5054674;28;20041;-70
2021/09/20 04:33:43;;;;;;;9.02;7.45;;;;;;;10.56;100.00;100261.59;5055146;28;20049;-69
2021/09/20 04:36:10;;;;;;;9.95;7.40;;;;;;;10.55;100.00;100257.22;5036514;28;20042;-69
2021/09/20 04:38:37;;;;;;;8.70;7.80;;;;;;;10.55;100.00;100273.25;5035318;28;20095;-69
2021/09/20 04:41:04;;;;;;;13.82;8.00;;;;;;;10.56;100.00;100269.63;5036432;28;20046;-70
2021/09/20 04:43:31;;;;;;;10.18;8.00;;;;;;;10.53;100.00;100269.81;5036320;28;20061;-69
2021/09/20 04:45:57;;;;;;;10.75;8.25;;;;;;;10.58;100.00;100273.06;5042671;28;20049;-68
2021/09/20 04:48:24;;;;;;;13.57;8.32;;;;;;;10.57;100.00;100277.53;5056209;28;20060;-69
2021/09/20 04:50:52;;;;;;;13.38;8.13;;;;;;;10.56;100.00;100281.16;5056088;28;20051;-69
2021/09/20 04:53:19;;;;;;;10.20;7.90;;;;;;;10.64;100.00;100280.72;5056127;28;20048;-70
2021/09/20 04:55:47;;;;;;;13.05;8.70;;;;;;;10.48;100.00;100283.44;5056121;28;20118;-69
2021/09/20 04:58:14;;;;;;;11.02;7.88;;;;;;;10.54;100.00;100290.22;5055871;28;20085;-68
2021/09/20 05:00:41;;;;;;;9.95;7.97;;;;;;;10.54;100.00;100282.19;5054065;28;20440;-68
2021/09/20 05:03:08;;;;;;;13.35;9.02;;;;;;;10.48;100.00;100290.56;5049298;28;20307;-68
2021/09/20 05:05:36;;;;;;;15.90;9.23;;;;;;;10.52;100.00;100289.44;5037793;28;20053;-68
2021/09/20 05:08:03;;;;;;;15.00;9.60;;;;;;;10.39;100.00;100303.47;5053815;28;20056;-69
2021/09/20 05:10:33;;;;;;;18.30;11.63;;;;;;;10.36;100.00;100301.00;5054412;28;20048;-69
2021/09/20 05:13:00;;;;;;;15.70;12.63;;;;;;;10.35;100.00;100299.25;5055775;28;20152;-69
2021/09/20 05:15:27;;;;;;;23.20;15.73;;;;;;;10.33;100.00;100310.03;5055761;28;20350;-68
2021/09/20 05:17:54;;;;;;;23.65;17.45;;;;;;;10.27;100.00;100299.72;5055186;28;20091;-71
2021/09/20 05:20:22;;;;;;;19.67;14.07;;;;;;;10.24;100.00;100305.22;5048308;28;20389;-75
2021/09/20 05:22:50;;;;;;;18.52;14.27;;;;;;;10.24;100.00;100307.03;5053957;28;20062;-74
2021/09/20 05:25:22;;;;;;;22.20;18.50;;;;;;;10.28;100.00;100308.56;5053485;28;20368;-72
2021/09/20 05:27:49;;;;;;;34.65;28.73;;;;;;;10.29;99.98;100313.81;5051990;28;20338;-71
2021/09/20 05:30:16;;;;;;;40.70;31.15;;;;;;;10.27;100.00;100313.06;5050532;28;20075;-70
2021/09/20 05:32:44;;;;;;;43.55;35.70;;;;;;;10.25;100.00;100314.09;5053728;28;20076;-67
2021/09/20 05:35:14;;;;;;;35.15;30.73;;;;;;;10.22;100.00;100309.78;5050845;28;20040;-67
2021/09/20 05:37:46;;;;;;;39.22;30.13;;;;;;;10.17;100.00;100307.38;5052970;28;20067;-68
2021/09/20 05:40:14;;;;;;;32.70;28.05;;;;;;;10.19;100.00;100313.47;5055967;28;20503;-69
2021/09/20 05:42:42;;;;;;;30.08;23.40;;;;;;;10.15;100.00;100306.59;5041554;28;20049;-69
2021/09/20 05:45:11;;;;;;;27.60;21.92;;;;;;;10.14;100.00;100317.38;5041530;28;20045;-70
2021/09/20 05:47:38;;;;;;;24.08;20.38;;;;;;;10.18;100.00;100319.75;5053567;28;20055;-70
2021/09/20 05:50:10;;;;;;;24.75;20.00;;;;;;;10.16;100.00;100321.66;5054578;28;20045;-74
2021/09/20 05:52:37;;;;;;;28.23;18.92;;;;;;;10.21;100.00;100317.84;5037424;28;20096;-75
2021/09/20 05:55:06;;;;;;;26.55;19.40;;;;;;;10.19;100.00;100321.47;5051392;28;20045;-69
2021/09/20 05:57:35;;;;;;;26.92;21.33;;;;;;;10.22;100.00;100324.91;5047927;28;20449;-71
2021/09/20 06:00:04;;;;;;;28.58;24.15;;;;;;;10.19;100.00;100325.97;5054616;28;20056;-70
2021/09/20 06:02:36;;;;;;;36.50;31.00;;;;;;;10.25;100.00;100330.09;5046995;28;20076;-71
2021/09/20 06:05:04;;;;;;;43.58;37.05;;;;;;;10.23;100.00;100332.00;5069831;28;20092;-68
2021/09/20 06:07:34;;;;;;;52.83;46.70;;;;;;;10.28;100.00;100340.56;5050546;28;20318;-70
2021/09/20 06:10:01;;;;;;;58.03;50.92;;;;;;;10.30;100.00;100336.03;5043901;28;20364;-70
2021/09/20 06:12:28;;;;;;;54.97;46.90;;;;;;;10.31;100.00;100337.75;5069795;28;20056;-68
2021/09/20 06:14:55;;;;;;;51.72;45.80;;;;;;;10.39;100.00;100340.81;5054849;28;20330;-68
2021/09/20 06:17:22;;;;;;;46.70;40.03;;;;;;;10.42;100.00;100343.34;5039496;28;20037;-68
2021/09/20 06:19:49;;;;;;;45.35;39.25;;;;;;;10.44;100.00;100348.59;5034363;28;20439;-69
2021/09/20 06:22:16;;;;;;;59.10;44.72;;;;;;;10.54;99.94;100348.91;5045607;28;20041;-70
2021/09/20 06:24:43;;;;;;;55.47;46.28;;;;;;;10.52;99.53;100349.00;5054328;28;20045;-68
2021/09/20 06:27:09;;;;;;;55.65;49.63;;;;;;;10.58;99.44;100356.66;5034623;28;20044;-68
2021/09/20 06:29:36;;;;;;;61.03;53.22;;;;;;;10.58;99.41;100353.16;5061517;28;20041;-66
2021/09/20 06:32:04;;;;;;;56.85;50.63;;;;;;;10.64;99.33;100346.56;5052276;28;20029;-71
2021/09/20 06:34:30;;;;;;;56.53;47.92;;;;;;;10.67;99.37;100347.25;5063807;28;20045;-67
2021/09/20 06:37:00;;;;;;;56.53;49.40;;;;;;;10.78;99.52;100348.44;5051182;28;20055;-69
2021/09/20 06:39:27;;;;;;;47.87;42.17;;;;;;;10.79;98.84;100344.81;5053080;28;20048;-69
2021/09/20 06:41:54;;;;;;;48.35;42.42;;;;;;;10.89;98.42;100351.31;5057093;28;20057;-69
2021/09/20 06:44:21;;;;;;;50.20;39.33;;;;;;;10.92;98.09;100351.16;5045174;28;20133;-67
2021/09/20 06:46:47;;;;;;;31.27;25.95;;;;;;;10.99;97.32;100360.53;5049468;28;20117;-68
2021/09/20 06:49:15;;;;;;;35.08;26.55;;;;;;;11.05;97.49;100366.47;5033905;28;20056;-68
2021/09/20 06:51:43;;;;;;;30.40;22.52;;;;;;;11.10;97.20;100369.69;5049678;28;20044;-68
2021/09/20 06:58:29;;;;;;;20.10;13.25;;;;;;;11.28;95.07;100373.09;5054861;28;20048;-65
2021/09/20 07:00:56;;;;;;;19.38;14.13;;;;;;;11.35;95.78;100366.41;5053591;28;20076;-68
2021/09/20 07:03:24;;;;;;;19.90;14.32;;;;;;;11.37;96.04;100360.97;5055237;28;20041;-69
2021/09/20 07:05:51;;;;;;;17.52;12.93;;;;;;;11.45;94.59;100366.72;5056134;28;20100;-68
2021/09/20 07:08:18;;;;;;;18.17;12.70;;;;;;;11.46;94.44;100365.75;5058063;28;20456;-69
2021/09/20 07:10:44;;;;;;;17.42;11.52;;;;;;;11.55;94.37;100375.88;5056796;28;20086;-69
2021/09/20 07:13:11;;;;;;;14.90;10.45;;;;;;;11.61;93.33;100371.94;5041748;28;20068;-69
2021/09/20 07:15:38;;;;;;;18.02;11.13;;;;;;;11.58;93.99;100373.94;5054928;28;20045;-69
2021/09/20 07:18:05;;;;;;;14.82;11.00;;;;;;;11.71;93.33;100374.06;5056893;28;20329;-69
2021/09/20 07:20:33;;;;;;;18.95;12.02;;;;;;;11.70;93.08;100369.69;5057497;28;20214;-69
2021/09/20 07:23:00;;;;;;;16.23;11.02;;;;;;;11.72;92.99;100365.91;5056949;28;20319;-69
2021/09/20 07:25:27;;;;;;;19.13;11.82;;;;;;;11.80;93.14;100374.34;5056603;28;20041;-69
2021/09/20 07:27:54;;;;;;;15.38;10.45;;;;;;;11.81;93.06;100378.75;5057637;28;20079;-69
2021/09/20 07:30:22;;;;;;;13.85;10.88;;;;;;;11.89;93.18;100377.41;5055963;28;20460;-69
2021/09/20 07:32:51;;;;;;;15.77;11.57;;;;;;;11.95;92.50;100379.69;5056563;28;20041;-69
2021/09/20 07:35:19;;;;;;;23.88;11.93;;;;;;;11.97;92.69;100375.09;5050832;28;20143;-69
2021/09/20 07:37:54;;;;;;;17.35;12.55;;;;;;;12.03;93.33;100380.06;5052600;28;20052;-69
2021/09/20 07:40:23;;;;;;;19.10;11.38;;;;;;;12.08;92.80;100380.66;5047869;28;20136;-69
2021/09/20 07:42:52;;;;;;;13.48;10.50;;;;;;;12.13;91.74;100379.47;5037790;28;20056;-69
2021/09/20 07:45:19;;;;;;;18.48;12.07;;;;;;;12.15;92.73;100373.06;5037644;28;20095;-69
2021/09/20 07:47:46;;;;;;;13.90;10.90;;;;;;;12.16;92.24;100373.94;5037594;28;20115;-69
2021/09/20 07:50:15;;;;;;;15.65;11.93;;;;;;;12.20;91.88;100380.84;5052794;28;20363;-69
2021/09/20 07:52:44;;;;;;;18.23;12.20;;;;;;;12.27;92.22;100381.28;5046205;28;20041;-69
2021/09/20 07:55:13;;;;;;;15.93;11.50;;;;;;;12.36;91.84;100386.03;5049844;28;20076;-69
2021/09/20 07:57:40;;;;;;;18.33;13.35;;;;;;;12.47;90.67;100388.00;5036178;28;20501;-69
2021/09/20 08:00:09;;;;;;;21.67;14.85;;;;;;;12.53;91.07;100382.25;5037034;28;20099;-69
2021/09/20 08:02:36;;;;;;;26.27;14.90;;;;;;;12.61;91.26;100387.09;5036303;28;20080;-69
2021/09/20 08:05:04;;;;;;;28.52;17.15;;;;;;;12.64;90.66;100384.22;5038111;28;20060;-69
2021/09/20 08:07:31;;;;;;;31.17;18.27;;;;;;;12.74;90.26;100389.81;5036761;28;20705;-69
2021/09/20 08:09:58;;;;;;;27.45;15.95;;;;;;;12.82;89.70;100392.88;5037010;28;20042;-69
2021/09/20 08:12:25;;;;;;;20.95;16.30;;;;;;;12.88;89.77;100400.50;5049106;28;20059;-69
2021/09/20 08:14:52;;;;;;;21.77;14.73;;;;;;;12.99;88.81;100396.22;5055763;28;20049;-69
2021/09/20 08:17:18;;;;;;;25.35;14.73;;;;;;;13.09;89.02;100400.00;5055195;28;20045;-69
2021/09/20 08:19:45;;;;;;;18.23;14.75;;;;;;;13.13;87.66;100398.81;5056538;28;20095;-69
2021/09/20 08:22:12;;;;;;;23.42;14.63;;;;;;;13.16;88.65;100395.94;5054924;28;20403;-69
2021/09/20 08:24:39;;;;;;;15.68;12.55;;;;;;;13.25;87.50;100402.47;5056126;28;20049;-70
2021/09/20 08:27:06;;;;;;;20.13;12.60;;;;;;;13.30;87.42;100403.00;5054891;28;20087;-70
2021/09/20 08:29:33;;;;;;;18.55;11.05;;;;;;;13.37;86.13;100402.59;5055325;28;20041;-69
2021/09/20 08:32:00;;;;;;;14.77;10.27;;;;;;;13.43;86.62;100418.25;5055273;28;20041;-68
2021/09/20 08:34:26;;;;;;;16.98;10.25;;;;;;;13.43;85.58;100411.09;5047991;28;20049;-70
2021/09/20 08:36:53;;;;;;;21.20;9.90;;;;;;;13.56;85.17;100413.78;5035323;28;20057;-69
2021/09/20 08:39:22;;;;;;;14.40;9.45;;;;;;;13.65;85.13;100414.13;5036056;28;20339;-69
2021/09/20 08:41:49;;;;;;;10.77;9.60;;;;;;;13.80;84.42;100409.50;5045416;28;20044;-70
2021/09/20 08:44:16;;;;;;;15.20;9.65;;;;;;;13.85;84.08;100418.94;5055843;28;20045;-69
2021/09/20 08:46:43;;;;;;;17.58;10.35;;;;;;;13.89;83.46;100421.41;5052078;28;20041;-71
2021/09/20 08:49:10;;;;;;;14.55;9.52;;;;;;;13.93;82.86;100415.72;5038022;28;20053;-70
2021/09/20 08:51:37;;;;;;;13.48;9.25;;;;;;;13.94;82.84;100414.75;5046565;28;20427;-70
2021/09/20 08:54:06;;;;;;;13.27;9.40;;;;;;;14.09;82.68;100425.34;5021308;28;20092;-68
2021/09/20 08:56:34;;;;;;;15.25;10.52;;;;;;;14.16;82.18;100433.84;5054463;28;20136;-68
2021/09/20 08:59:01;;;;;;;14.80;10.05;;;;;;;14.14;82.77;100431.25;5055392;28;20076;-69
2021/09/20 09:01:29;;;;;;;13.57;9.40;;;;;;;14.26;81.76;100435.75;5053750;28;20488;-70
2021/09/20 09:04:27;;;;;;;15.07;9.40;;;;;;;14.26;81.95;100438.41;5055646;28;20434;-68
2021/09/20 09:07:09;;;;;;;14.27;10.30;;;;;;;14.37;80.88;100439.44;5053980;28;20071;-70
2021/09/20 09:09:43;;;;;;;14.48;9.90;;;;;;;14.44;80.75;100440.72;5053416;28;20059;-70
2021/09/20 09:12:30;;;;;;;17.65;9.55;;;;;;;14.46;79.94;100449.53;5049174;28;20045;-70
2021/09/20 09:15:02;;;;;;;18.08;10.57;;;;;;;14.38;79.83;100451.91;5053608;28;20470;-69
2021/09/20 09:17:41;;;;;;;14.27;9.25;;;;;;;14.35;80.84;100444.97;5069086;28;20326;-70
2021/09/20 09:20:22;;;;;;;17.55;10.13;;;;;;;14.38;80.12;100451.91;5054553;28;20395;-69
2021/09/20 09:22:54;;;;;;;18.42;11.00;;;;;;;14.41;80.80;100446.31;5055166;28;20052;-69
2021/09/20 09:25:25;;;;;;;18.90;10.65;;;;;;;14.53;81.00;100453.50;5050929;28;20045;-69
2021/09/20 09:27:55;;;;;;;18.50;9.50;;;;;;;14.71;79.88;100461.16;5034891;28;20182;-69
2021/09/20 09:30:25;;;;;;;13.93;9.33;;;;;;;14.83;78.80;100451.38;5034108;28;20076;-70
2021/09/20 09:33:10;;;;;;;15.85;9.77;;;;;;;15.01;78.93;100459.88;5035336;28;20042;-70
2021/09/20 09:35:42;;;;;;;16.33;9.50;;;;;;;15.05;77.35;100457.81;5042047;28;20080;-70
2021/09/20 09:38:09;;;;;;;18.25;10.50;;;;;;;15.13;77.31;100466.16;5054067;28;20498;-70
2021/09/20 09:40:58;;;;;;;15.60;9.52;;;;;;;15.20;76.73;100464.72;5053688;28;20037;-69
2021/09/20 09:43:35;;;;;;;17.92;10.38;;;;;;;15.30;76.40;100467.56;5054000;28;20052;-70
2021/09/20 09:46:18;;;;;;;16.55;9.90;;;;;;;15.47;75.30;100477.03;5053796;28;20072;-70
2021/09/20 09:48:45;;;;;;;13.23;9.55;;;;;;;15.58;74.01;100484.28;5055162;28;20056;-70
2021/09/20 09:51:12;;;;;;;15.70;10.50;;;;;;;15.61;72.36;100483.19;5053628;28;20377;-69
2021/09/20 09:53:44;;;;;;;11.55;9.40;;;;;;;15.73;73.26;100479.56;5054527;28;20087;-72
2021/09/20 09:56:15;;;;;;;15.60;10.07;;;;;;;15.84;72.56;100483.22;5046886;28;20140;-71
2021/09/20 09:59:03;;;;;;;16.35;10.05;;;;;;;16.05;71.85;100477.16;5054896;28;20076;-70
2021/09/20 10:01:39;;;;;;;15.63;10.00;;;;;;;16.06;71.39;100479.72;5042943;28;20053;-71
2021/09/20 10:04:23;;;;;;;16.02;10.40;;;;;;;16.23;71.47;100475.69;5054899;28;20068;-70
2021/09/20 10:06:56;;;;;;;15.48;10.70;;;;;;;16.36;71.06;100478.28;5050985;28;20434;-70
2021/09/20 10:09:28;;;;;;;14.25;11.23;;;;;;;16.25;70.96;100481.81;5049131;28;20073;-69
2021/09/20 10:11:58;;;;;;;18.23;10.60;;;;;;;16.39;70.63;100485.22;5051591;28;20051;-70
2021/09/20 10:14:27;;;;;;;16.20;9.73;;;;;;;16.39;70.72;100483.41;5036309;28;20115;-70
2021/09/20 10:16:56;;;;;;;15.63;9.40;;;;;;;16.49;70.90;100490.72;5053728;28;20041;-69
2021/09/20 10:19:23;;;;;;;15.30;10.38;;;;;;;16.68;69.54;100482.88;5041554;28;20481;-70
2021/09/20 10:21:51;;;;;;;13.75;9.95;;;;;;;16.85;70.28;100488.72;5037568;28;20038;-70
2021/09/20 10:24:18;;;;;;;13.95;10.77;;;;;;;16.62;69.40;100487.91;5034212;28;20069;-68
2021/09/20 10:26:50;;;;;;;19.80;9.75;;;;;;;16.46;71.24;100491.88;5032786;28;20426;-69
2021/09/20 10:29:19;;;;;;;16.52;11.05;;;;;;;16.39;71.27;100483.41;5045970;28;20037;-69
2021/09/20 10:31:49;;;;;;;19.00;10.32;;;;;;;16.19;70.95;100487.72;5053533;28;20049;-72
2021/09/20 10:34:23;;;;;;;14.60;9.70;;;;;;;16.07;71.28;100488.69;5054288;28;20425;-71
2021/09/20 10:37:07;;;;;;;17.73;9.90;;;;;;;15.83;73.48;100485.06;5052281;28;20506;-73
2021/09/20 10:40:00;;;;;;;17.58;9.73;;;;;;;16.03;71.96;100482.69;5042158;28;20049;-71
2021/09/20 10:42:33;;;;;;;13.35;9.18;;;;;;;16.26;72.52;100494.31;5046612;28;20039;-72
2021/09/20 10:45:07;;;;;;;11.68;8.18;;;;;;;16.46;71.62;100483.78;5047381;28;20045;-68
2021/09/20 10:47:43;;;;;;;12.23;9.02;;;;;;;16.83;69.22;100487.97;5056906;28;20060;-67
2021/09/20 10:50:10;;;;;;;13.20;9.02;;;;;;;17.26;67.73;100480.03;5052744;28;20045;-71
2021/09/20 10:53:32;;;;;;;13.75;9.05;;;;;;;17.15;67.02;100479.09;5065464;28;20386;-71
2021/09/20 10:56:06;;;;;;;13.55;8.60;;;;;;;17.05;67.77;100481.69;5045246;28;20476;-70
2021/09/20 10:58:34;;;;;;;19.45;8.48;;;;;;;16.76;66.69;100486.75;5052823;28;20501;-69
2021/09/20 11:01:10;;;;;;;11.93;7.38;;;;;;;16.50;68.30;100487.09;5049586;28;20043;-69
2021/09/20 11:03:45;;;;;;;13.07;7.60;;;;;;;16.52;67.09;100474.34;5042163;28;20037;-70
2021/09/20 11:06:22;;;;;;;14.43;8.50;;;;;;;16.88;66.76;100476.84;5041821;28;20080;-69
2021/09/20 11:08:58;;;;;;;11.73;7.72;;;;;;;17.15;65.63;100489.88;5046490;28;20072;-69
2021/09/20 11:11:47;;;;;;;15.18;7.80;;;;;;;17.53;65.38;100490.31;5053684;28;20073;-69
2021/09/20 11:14:17;;;;;;;11.50;7.38;;;;;;;17.77;63.12;100487.34;5032136;28;20046;-69
2021/09/20 11:16:57;;;;;;;15.40;9.38;;;;;;;17.71;62.76;100487.88;5032157;28;20139;-69
2021/09/20 11:19:24;;;;;;;13.30;8.30;;;;;;;17.77;62.54;100483.81;5034104;28;20048;-69
2021/09/20 11:22:16;;;;;;;15.73;8.73;;;;;;;17.90;62.62;100488.97;5049798;28;20131;-69
2021/09/20 11:24:50;;;;;;;17.33;8.50;;;;;;;17.94;62.32;100493.13;5054161;28;20040;-68